This is the latest recevied weather packets stored in our database for station/object EA5BZ. If no packets are shown the sender has not sent any weather packets the latest 10 day(s).
| Time | Temp. | Humidity | Pressure | Rain* | Wind** | Luminosity | Snow |
|---|---|---|---|---|---|---|---|
| 1777505417 | 16.67° C | 84% | 1015.1 hPa | 0 mm | - | - | - |
| 1777504517 | 16.67° C | 84% | 1015.1 hPa | 0 mm | - | - | - |
| 1777504217 | 16.67° C | 84% | 1015.1 hPa | 0 mm | - | - | - |
| 1777502717 | 17.22° C | 83% | 1014.7 hPa | 0 mm | - | - | - |
| 1777501217 | 17.22° C | 84% | 1014.5 hPa | 0 mm | - | - | - |
| 1777499416 | 17.22° C | 83% | 1014.4 hPa | 0 mm | - | - | - |
| 1777498816 | 17.78° C | 82% | 1014.4 hPa | 0 mm | - | - | - |
| 1777497916 | 17.78° C | 82% | 1014.5 hPa | 0 mm | - | - | - |
| 1777495216 | 18.33° C | 82% | 1014.4 hPa | 0 mm | - | - | - |
| 1777494916 | 18.33° C | 82% | 1014.4 hPa | 0 mm | - | - | - |
| 1777494316 | 17.78° C | 82% | 1014.2 hPa | 0 mm | - | - | - |
| 1777490716 | 17.78° C | 82% | 1013.2 hPa | 0 mm | - | - | - |
| 1777488016 | 18.33° C | 82% | 1012.6 hPa | 0 mm | - | - | - |
| 1777486516 | 18.33° C | 82% | 1012.4 hPa | 0 mm | - | - | - |
| 1777484416 | 18.89° C | 80% | 1012.2 hPa | 0 mm | - | - | - |
| 1777481418 | 20° C | 75% | 1011.5 hPa | 0 mm | - | - | - |
| 1777479657 | 20.56° C | 73% | 1011.6 hPa | 0 mm | - | - | - |
| 1777479317 | 20.56° C | 73% | 1011.6 hPa | 0 mm | - | - | - |
| 1777477517 | 21.11° C | 70% | 1011.3 hPa | 0 mm | - | - | - |
| 1777476637 | 21.67° C | 69% | 1011.2 hPa | 0 mm | - | - | - |
| 1777476017 | 21.11° C | 69% | 1011.3 hPa | 0 mm | - | - | - |
| 1777475117 | 21.67° C | 68% | 1011.3 hPa | 0 mm | - | - | - |
| 1777474817 | 21.67° C | 67% | 1011.3 hPa | 0 mm | - | - | - |
| 1777473017 | 21.67° C | 68% | 1011.2 hPa | 0 mm | - | - | - |
| 1777472717 | 21.67° C | 68% | 1011.2 hPa | 0 mm | - | - | - |
* Rain latest hour (hover to see other rain measurements)
** Current wind speed in m/s (hover to see current wind gust speed)